createdAt,value
2023-05-03T00:00:31.713Z,95099.00
2023-05-03T00:01:31.828Z,95095.00
2023-05-03T00:02:31.831Z,95095.00
2023-05-03T00:03:31.828Z,95099.00
2023-05-03T00:04:31.830Z,95097.00
2023-05-03T00:05:31.929Z,95099.00
2023-05-03T00:06:31.918Z,95099.00
2023-05-03T00:07:31.926Z,95097.00
2023-05-03T00:08:31.972Z,95095.00
2023-05-03T00:09:32.024Z,95095.00
2023-05-03T00:10:32.092Z,95093.00
2023-05-03T00:11:32.151Z,95093.00
2023-05-03T00:12:32.192Z,95093.00
2023-05-03T00:13:32.209Z,95091.00
2023-05-03T00:14:32.274Z,95093.00
2023-05-03T00:15:32.329Z,95091.00
2023-05-03T00:16:32.418Z,95093.00
2023-05-03T00:17:32.429Z,95087.00
2023-05-03T00:18:32.496Z,95091.00
2023-05-03T00:19:32.566Z,95091.00
2023-05-03T00:20:32.617Z,95091.00
2023-05-03T00:21:32.747Z,95089.00
2023-05-03T00:22:32.750Z,95089.00
2023-05-03T00:23:32.804Z,95087.00
2023-05-03T00:24:32.852Z,95089.00
2023-05-03T00:25:32.898Z,95087.00
2023-05-03T00:26:32.952Z,95087.00
2023-05-03T00:27:33.001Z,95091.00
2023-05-03T00:28:33.075Z,95087.00
2023-05-03T00:29:33.108Z,95087.00
2023-05-03T00:30:33.189Z,95087.00
2023-05-03T00:31:33.311Z,95087.00
2023-05-03T00:32:33.313Z,95089.00
2023-05-03T00:33:33.351Z,95093.00
2023-05-03T00:34:33.406Z,95091.00
2023-05-03T00:35:33.468Z,95087.00
2023-05-03T00:36:34.745Z,95089.00
2023-05-03T00:37:33.570Z,95089.00
2023-05-03T00:38:33.613Z,95089.00
2023-05-03T00:39:33.659Z,95089.00
2023-05-03T00:40:33.713Z,95089.00
2023-05-03T00:41:33.773Z,95091.00
2023-05-03T00:42:33.830Z,95089.00
2023-05-03T00:43:33.825Z,95085.00
2023-05-03T00:44:33.917Z,95085.00
2023-05-03T00:45:33.956Z,95085.00
2023-05-03T00:46:34.053Z,95085.00
2023-05-03T00:47:34.124Z,95085.00
2023-05-03T00:48:34.153Z,95085.00
2023-05-03T00:49:34.231Z,95085.00
2023-05-03T00:50:34.263Z,95087.00
2023-05-03T00:51:34.340Z,95087.00
2023-05-03T00:52:34.381Z,95089.00
2023-05-03T00:53:34.441Z,95089.00
2023-05-03T00:54:34.512Z,95087.00
2023-05-03T00:55:34.593Z,95089.00
2023-05-03T00:56:44.328Z,95087.00
2023-05-03T00:57:35.612Z,95089.00
2023-05-03T00:58:34.627Z,95089.00
2023-05-03T00:59:34.624Z,95087.00
2023-05-03T01:00:34.598Z,95089.00
2023-05-03T01:01:34.643Z,95089.00
2023-05-03T01:02:34.728Z,95089.00
2023-05-03T01:03:34.710Z,95087.00
2023-05-03T01:04:34.582Z,95085.00
2023-05-03T01:05:34.569Z,95087.00
2023-05-03T01:06:34.607Z,95083.00
2023-05-03T01:07:34.681Z,95085.00
2023-05-03T01:08:34.720Z,95083.00
2023-05-03T01:09:34.768Z,95085.00
2023-05-03T01:10:34.819Z,95081.00
2023-05-03T01:11:34.874Z,95081.00
2023-05-03T01:12:34.953Z,95081.00
2023-05-03T01:13:34.994Z,95079.00
2023-05-03T01:14:34.992Z,95079.00
2023-05-03T01:15:35.031Z,95081.00
2023-05-03T01:16:35.168Z,95079.00
2023-05-03T01:17:35.169Z,95079.00
2023-05-03T01:18:35.210Z,95077.00
2023-05-03T01:19:35.262Z,95079.00
2023-05-03T01:20:35.317Z,95079.00
2023-05-03T01:21:35.378Z,95077.00
2023-05-03T01:22:35.445Z,95079.00
2023-05-03T01:23:35.492Z,95077.00
2023-05-03T01:24:35.543Z,95079.00
2023-05-03T01:25:35.624Z,95081.00
2023-05-03T01:26:35.672Z,95081.00
2023-05-03T01:27:35.705Z,95079.00
2023-05-03T01:28:35.785Z,95081.00
2023-05-03T01:29:35.836Z,95077.00
2023-05-03T01:30:35.869Z,95075.00
2023-05-03T01:31:36.015Z,95077.00
2023-05-03T01:32:36.013Z,95075.00
2023-05-03T01:33:36.020Z,95075.00
2023-05-03T01:34:36.100Z,95075.00
2023-05-03T01:35:36.184Z,95075.00
2023-05-03T01:36:36.172Z,95077.00
2023-05-03T01:37:36.282Z,95075.00
2023-05-03T01:38:36.277Z,95077.00
2023-05-03T01:39:36.347Z,95075.00
2023-05-03T01:40:36.395Z,95075.00
2023-05-03T01:41:36.480Z,95079.00
2023-05-03T01:42:36.543Z,95079.00
2023-05-03T01:43:36.623Z,95077.00
2023-05-03T01:44:36.659Z,95081.00
2023-05-03T01:45:36.760Z,95077.00
2023-05-03T01:46:36.775Z,95079.00
2023-05-03T01:47:36.938Z,95079.00
2023-05-03T01:48:36.884Z,95079.00
2023-05-03T01:49:36.915Z,95079.00
2023-05-03T01:50:36.965Z,95077.00
2023-05-03T01:51:36.968Z,95077.00
2023-05-03T01:52:37.032Z,95077.00
2023-05-03T01:53:37.113Z,95077.00
2023-05-03T01:54:37.153Z,95079.00
2023-05-03T01:55:37.230Z,95081.00
2023-05-03T01:56:37.275Z,95081.00
2023-05-03T01:57:37.331Z,95079.00
2023-05-03T01:58:37.393Z,95079.00
2023-05-03T01:59:37.429Z,95079.00
2023-05-03T02:00:37.517Z,95079.00
2023-05-03T02:01:37.691Z,95079.00
2023-05-03T02:02:37.681Z,95077.00
2023-05-03T02:03:37.658Z,95077.00
2023-05-03T02:04:37.745Z,95077.00
2023-05-03T02:05:37.767Z,95077.00
2023-05-03T02:06:37.871Z,95077.00
2023-05-03T02:07:37.856Z,95079.00
2023-05-03T02:08:37.919Z,95079.00
2023-05-03T02:09:37.966Z,95077.00
2023-05-03T02:10:38.054Z,95077.00
2023-05-03T02:11:38.101Z,95077.00
2023-05-03T02:12:38.144Z,95077.00
2023-05-03T02:13:38.191Z,95075.00
2023-05-03T02:14:38.252Z,95079.00
2023-05-03T02:15:38.288Z,95079.00
2023-05-03T02:16:38.388Z,95079.00
2023-05-03T02:17:38.446Z,95081.00
2023-05-03T02:18:38.486Z,95079.00
2023-05-03T02:19:38.537Z,95081.00
2023-05-03T02:20:38.596Z,95079.00
2023-05-03T02:21:38.646Z,95083.00
2023-05-03T02:22:38.714Z,95085.00
2023-05-03T02:23:38.851Z,95083.00
2023-05-03T02:24:38.976Z,95083.00
2023-05-03T02:25:39.111Z,95083.00
2023-05-03T02:26:39.272Z,95085.00
2023-05-03T02:27:39.444Z,95085.00
2023-05-03T02:28:39.600Z,95085.00
2023-05-03T02:29:39.740Z,95083.00
2023-05-03T02:30:39.789Z,95081.00
2023-05-03T02:31:39.853Z,95079.00
2023-05-03T02:32:39.964Z,95083.00
2023-05-03T02:33:39.977Z,95081.00
2023-05-03T02:34:40.032Z,95081.00
2023-05-03T02:35:40.055Z,95083.00
2023-05-03T02:36:40.121Z,95083.00
2023-05-03T02:37:40.172Z,95079.00
2023-05-03T02:38:40.256Z,95081.00
2023-05-03T02:39:40.292Z,95083.00
2023-05-03T02:40:40.366Z,95081.00
2023-05-03T02:41:40.400Z,95081.00
2023-05-03T02:42:40.480Z,95079.00
2023-05-03T02:43:40.530Z,95079.00
2023-05-03T02:44:40.584Z,95081.00
2023-05-03T02:45:40.654Z,95077.00
2023-05-03T02:46:40.792Z,95081.00
2023-05-03T02:47:40.798Z,95081.00
2023-05-03T02:48:40.818Z,95083.00
2023-05-03T02:49:40.839Z,95079.00
2023-05-03T02:50:40.862Z,95079.00
2023-05-03T02:51:40.876Z,95079.00
2023-05-03T02:52:40.895Z,95081.00
2023-05-03T02:53:40.974Z,95083.00
2023-05-03T02:54:41.000Z,95081.00
2023-05-03T02:55:41.065Z,95085.00
2023-05-03T02:56:41.106Z,95085.00
2023-05-03T02:57:42.325Z,95085.00
2023-05-03T02:58:41.232Z,95087.00
2023-05-03T02:59:41.279Z,95087.00
2023-05-03T03:00:41.280Z,95083.00
2023-05-03T03:01:41.396Z,95087.00
2023-05-03T03:02:41.476Z,95089.00
2023-05-03T03:03:41.530Z,95087.00
2023-05-03T03:04:41.531Z,95087.00
2023-05-03T03:05:41.591Z,95091.00
2023-05-03T03:06:41.677Z,95089.00
2023-05-03T03:07:41.682Z,95091.00
2023-05-03T03:08:41.773Z,95087.00
2023-05-03T03:09:41.917Z,95085.00
2023-05-03T03:10:42.055Z,95083.00
2023-05-03T03:11:42.114Z,95085.00
2023-05-03T03:12:42.152Z,95083.00
2023-05-03T03:13:42.186Z,95085.00
2023-05-03T03:14:42.263Z,95085.00
2023-05-03T03:15:42.375Z,95089.00
2023-05-03T03:16:42.347Z,95087.00
2023-05-03T03:17:42.452Z,95087.00
2023-05-03T03:18:42.467Z,95087.00
2023-05-03T03:19:42.543Z,95089.00
2023-05-03T03:20:42.596Z,95089.00
2023-05-03T03:21:42.664Z,95091.00
2023-05-03T03:22:42.726Z,95091.00
2023-05-03T03:23:42.766Z,95091.00
2023-05-03T03:24:42.825Z,95093.00
2023-05-03T03:25:42.863Z,95093.00
2023-05-03T03:26:42.874Z,95095.00
2023-05-03T03:27:42.936Z,95095.00
2023-05-03T03:28:42.962Z,95095.00
2023-05-03T03:29:42.991Z,95095.00
2023-05-03T03:30:43.005Z,95095.00
2023-05-03T03:31:43.050Z,95093.00
2023-05-03T03:32:43.110Z,95093.00
2023-05-03T03:33:43.137Z,95095.00
2023-05-03T03:34:43.143Z,95095.00
2023-05-03T03:35:43.201Z,95093.00
2023-05-03T03:36:43.275Z,95093.00
2023-05-03T03:37:43.300Z,95095.00
2023-05-03T03:38:43.322Z,95097.00
2023-05-03T03:39:43.369Z,95101.00
2023-05-03T03:40:43.394Z,95097.00
2023-05-03T03:41:43.440Z,95099.00
2023-05-03T03:42:43.481Z,95101.00
2023-05-03T03:43:43.511Z,95103.00
2023-05-03T03:44:43.563Z,95103.00
2023-05-03T03:45:43.614Z,95105.00
2023-05-03T03:46:43.721Z,95105.00
2023-05-03T03:47:43.695Z,95105.00
2023-05-03T03:48:43.695Z,95109.00
2023-05-03T03:49:43.734Z,95109.00
2023-05-03T03:50:43.768Z,95107.00
2023-05-03T03:51:43.790Z,95110.00
2023-05-03T03:52:43.826Z,95109.00
2023-05-03T03:53:43.886Z,95109.00
2023-05-03T03:54:43.931Z,95109.00
2023-05-03T03:55:43.983Z,95109.00
2023-05-03T03:56:44.041Z,95109.00
2023-05-03T03:57:44.051Z,95109.00
2023-05-03T03:58:44.111Z,95109.00
2023-05-03T03:59:44.121Z,95107.00
2023-05-03T04:00:44.203Z,95107.00
2023-05-03T04:01:44.293Z,95107.00
2023-05-03T04:02:44.961Z,95107.00
2023-05-03T04:03:44.421Z,95105.00
2023-05-03T04:04:44.430Z,95107.00
2023-05-03T04:05:44.463Z,95107.00
2023-05-03T04:06:44.600Z,95105.00
2023-05-03T04:07:44.540Z,95107.00
2023-05-03T04:08:44.656Z,95105.00
2023-05-03T04:09:44.649Z,95107.00
2023-05-03T04:10:44.668Z,95105.00
2023-05-03T04:11:44.714Z,95107.00
2023-05-03T04:12:44.754Z,95105.00
2023-05-03T04:13:44.785Z,95105.00
2023-05-03T04:14:44.829Z,95105.00
2023-05-03T04:15:44.901Z,95103.00
2023-05-03T04:16:44.945Z,95107.00
2023-05-03T04:17:44.981Z,95105.00
2023-05-03T04:18:44.971Z,95109.00
2023-05-03T04:19:45.011Z,95107.00
2023-05-03T04:20:45.027Z,95109.00
2023-05-03T04:21:45.072Z,95110.00
2023-05-03T04:22:45.127Z,95109.00
2023-05-03T04:23:45.125Z,95112.00
2023-05-03T04:24:45.191Z,95112.00
2023-05-03T04:25:45.260Z,95114.00
2023-05-03T04:26:45.298Z,95116.00
2023-05-03T04:27:45.339Z,95116.00
2023-05-03T04:28:45.367Z,95116.00
2023-05-03T04:29:45.408Z,95120.00
2023-05-03T04:30:45.471Z,95120.00
2023-05-03T04:31:45.485Z,95118.00
2023-05-03T04:32:45.531Z,95120.00
2023-05-03T04:33:45.545Z,95122.00
2023-05-03T04:34:47.268Z,95118.00
2023-05-03T04:35:45.570Z,95120.00
2023-05-03T04:36:45.561Z,95118.00
2023-05-03T04:37:45.542Z,95118.00
2023-05-03T04:38:45.543Z,95118.00
2023-05-03T04:39:45.537Z,95118.00
2023-05-03T04:40:45.535Z,95118.00
2023-05-03T04:41:45.535Z,95118.00
2023-05-03T04:42:45.534Z,95118.00
2023-05-03T04:43:45.518Z,95118.00
2023-05-03T04:44:45.511Z,95122.00
2023-05-03T04:45:45.487Z,95120.00
2023-05-03T04:46:45.717Z,95122.00
2023-05-03T04:47:45.504Z,95124.00
2023-05-03T04:48:45.501Z,95132.00
2023-05-03T04:49:45.471Z,95132.00
2023-05-03T04:50:45.480Z,95134.00
2023-05-03T04:51:45.442Z,95132.00
2023-05-03T04:52:45.442Z,95132.00
2023-05-03T04:53:45.447Z,95134.00
2023-05-03T04:54:45.444Z,95132.00
2023-05-03T04:55:45.424Z,95134.00
2023-05-03T04:56:45.430Z,95134.00
2023-05-03T04:57:45.434Z,95132.00
2023-05-03T04:58:45.394Z,95130.00
2023-05-03T04:59:45.405Z,95128.00
2023-05-03T05:00:45.387Z,95130.00
2023-05-03T05:01:45.444Z,95132.00
2023-05-03T05:02:45.474Z,95130.00
2023-05-03T05:03:45.434Z,95130.00
2023-05-03T05:04:45.367Z,95128.00
2023-05-03T05:05:45.344Z,95132.00
2023-05-03T05:06:45.481Z,95132.00
2023-05-03T05:07:45.469Z,95132.00
2023-05-03T05:08:45.354Z,95132.00
2023-05-03T05:09:45.390Z,95132.00
2023-05-03T05:10:45.325Z,95136.00
2023-05-03T05:11:45.291Z,95132.00
2023-05-03T05:12:45.326Z,95132.00
2023-05-03T05:13:45.289Z,95132.00
2023-05-03T05:14:45.276Z,95130.00
2023-05-03T05:15:45.268Z,95132.00
2023-05-03T05:16:45.394Z,95132.00
2023-05-03T05:17:45.409Z,95128.00
2023-05-03T05:18:45.335Z,95126.00
2023-05-03T05:19:45.402Z,95126.00
2023-05-03T05:20:45.467Z,95126.00
2023-05-03T05:21:45.513Z,95126.00
2023-05-03T05:22:45.587Z,95128.00
2023-05-03T05:23:45.622Z,95128.00
2023-05-03T05:24:45.683Z,95130.00
2023-05-03T05:25:45.757Z,95130.00
2023-05-03T05:26:45.809Z,95132.00
2023-05-03T05:27:45.887Z,95134.00
2023-05-03T05:28:45.929Z,95136.00
2023-05-03T05:29:45.981Z,95140.00
2023-05-03T05:30:46.145Z,95138.00
2023-05-03T05:31:46.241Z,95140.00
2023-05-03T05:32:46.179Z,95138.00
2023-05-03T05:33:46.174Z,95140.00
2023-05-03T05:34:46.244Z,95138.00
2023-05-03T05:35:46.279Z,95142.00
2023-05-03T05:36:46.332Z,95142.00
2023-05-03T05:37:46.759Z,95144.00
2023-05-03T05:38:46.442Z,95144.00
2023-05-03T05:39:46.520Z,95144.00
2023-05-03T05:40:46.597Z,95144.00
2023-05-03T05:41:46.770Z,95144.00
2023-05-03T05:42:46.677Z,95146.00
2023-05-03T05:43:46.714Z,95144.00
2023-05-03T05:44:46.753Z,95148.00
2023-05-03T05:45:46.783Z,95148.00
2023-05-03T05:46:47.330Z,95148.00
2023-05-03T05:47:46.894Z,95150.00
2023-05-03T05:48:46.911Z,95148.00
2023-05-03T05:49:46.933Z,95152.00
2023-05-03T05:50:46.968Z,95150.00
2023-05-03T05:51:46.991Z,95154.00
2023-05-03T05:52:46.985Z,95152.00
2023-05-03T05:53:46.988Z,95152.00
2023-05-03T05:54:47.005Z,95150.00
2023-05-03T05:55:47.048Z,95152.00
2023-05-03T05:56:47.044Z,95150.00
2023-05-03T05:57:47.066Z,95150.00
2023-05-03T05:58:47.064Z,95152.00
2023-05-03T05:59:47.077Z,95148.00
2023-05-03T06:00:47.059Z,95150.00
2023-05-03T06:01:47.126Z,95154.00
2023-05-03T06:02:47.198Z,95156.00
2023-05-03T06:03:47.071Z,95156.00
2023-05-03T06:04:47.160Z,95156.00
2023-05-03T06:05:47.161Z,95154.00
2023-05-03T06:06:47.241Z,95156.00
2023-05-03T06:07:47.087Z,95156.00
2023-05-03T06:08:47.077Z,95154.00
2023-05-03T06:09:47.076Z,95156.00
2023-05-03T06:10:47.074Z,95156.00
2023-05-03T06:11:47.093Z,95156.00
2023-05-03T06:12:47.093Z,95154.00
2023-05-03T06:13:47.141Z,95152.00
2023-05-03T06:15:47.152Z,95152.00
2023-05-03T06:16:47.201Z,95150.00
2023-05-03T06:17:47.297Z,95148.00
2023-05-03T06:18:47.217Z,95148.00
2023-05-03T06:19:47.234Z,95144.00
2023-05-03T06:20:47.256Z,95144.00
2023-05-03T06:21:47.292Z,95142.00
2023-05-03T06:22:47.332Z,95142.00
2023-05-03T06:23:47.343Z,95140.00
2023-05-03T06:24:47.354Z,95140.00
2023-05-03T06:25:47.389Z,95140.00
2023-05-03T06:26:47.789Z,95138.00
2023-05-03T06:27:47.459Z,95140.00
2023-05-03T06:28:47.570Z,95138.00
2023-05-03T06:29:47.488Z,95142.00
2023-05-03T06:30:47.591Z,95138.00
2023-05-03T06:31:48.035Z,95138.00
2023-05-03T06:32:47.711Z,95136.00
2023-05-03T06:33:47.767Z,95138.00
2023-05-03T06:34:47.681Z,95138.00
2023-05-03T06:35:47.683Z,95144.00
2023-05-03T06:36:47.765Z,95138.00
2023-05-03T06:37:47.775Z,95144.00
2023-05-03T06:38:47.783Z,95144.00
2023-05-03T06:39:47.903Z,95148.00
2023-05-03T06:40:47.853Z,95146.00
2023-05-03T06:41:47.782Z,95146.00
2023-05-03T06:42:47.788Z,95150.00
2023-05-03T06:43:47.799Z,95148.00
2023-05-03T06:44:47.846Z,95148.00
2023-05-03T06:45:47.933Z,95144.00
2023-05-03T06:46:47.988Z,95142.00
2023-05-03T06:47:48.312Z,95146.00
2023-05-03T06:48:48.313Z,95142.00
2023-05-03T06:49:48.102Z,95144.00
2023-05-03T06:50:48.163Z,95144.00
2023-05-03T06:51:48.215Z,95140.00
2023-05-03T06:52:48.260Z,95138.00
2023-05-03T06:53:48.322Z,95144.00
2023-05-03T06:54:48.369Z,95144.00
2023-05-03T06:55:48.480Z,95142.00
2023-05-03T06:56:48.501Z,95142.00
2023-05-03T06:57:48.817Z,95140.00
2023-05-03T06:58:48.642Z,95144.00
2023-05-03T06:59:48.802Z,95144.00
2023-05-03T07:00:48.949Z,95144.00
2023-05-03T07:01:49.239Z,95146.00
2023-05-03T07:02:49.569Z,95144.00
2023-05-03T07:03:49.539Z,95138.00
2023-05-03T07:04:49.627Z,95140.00
2023-05-03T07:05:49.785Z,95144.00
2023-05-03T07:07:50.946Z,95138.00
2023-05-03T07:08:50.311Z,95132.00
2023-05-03T07:09:49.924Z,95134.00
2023-05-03T07:10:49.946Z,95134.00
2023-05-03T07:11:50.203Z,95132.00
2023-05-03T07:12:49.901Z,95132.00
2023-05-03T07:13:49.911Z,95132.00
2023-05-03T07:14:49.909Z,95126.00
2023-05-03T07:15:49.939Z,95128.00
2023-05-03T07:16:49.983Z,95130.00
2023-05-03T07:17:49.944Z,95130.00
2023-05-03T07:18:50.317Z,95132.00
2023-05-03T07:19:49.850Z,95126.00
2023-05-03T07:20:50.001Z,95126.00
2023-05-03T07:21:49.842Z,95124.00
2023-05-03T07:22:49.849Z,95128.00
2023-05-03T07:23:49.884Z,95124.00
2023-05-03T07:24:49.901Z,95124.00
2023-05-03T07:25:49.962Z,95128.00
2023-05-03T07:26:49.985Z,95126.00
2023-05-03T07:27:49.926Z,95126.00
2023-05-03T07:28:50.224Z,95124.00
2023-05-03T07:29:49.968Z,95124.00
2023-05-03T07:30:49.950Z,95122.00
2023-05-03T07:31:52.029Z,95120.00
2023-05-03T07:32:50.093Z,95122.00
2023-05-03T07:33:50.095Z,95118.00
2023-05-03T07:34:49.970Z,95118.00
2023-05-03T07:35:49.936Z,95118.00
2023-05-03T07:36:49.919Z,95114.00
2023-05-03T07:37:49.913Z,95116.00
2023-05-03T07:38:49.975Z,95118.00
2023-05-03T07:39:49.911Z,95116.00
2023-05-03T07:40:49.904Z,95114.00
2023-05-03T07:41:49.907Z,95112.00
2023-05-03T07:42:49.902Z,95114.00
2023-05-03T07:43:50.122Z,95118.00
2023-05-03T07:44:49.884Z,95114.00
2023-05-03T07:45:49.889Z,95114.00
2023-05-03T07:46:49.919Z,95114.00
2023-05-03T07:47:49.946Z,95112.00
2023-05-03T07:48:49.903Z,95105.00
2023-05-03T07:49:49.931Z,95110.00
2023-05-03T07:50:49.946Z,95110.00
2023-05-03T07:51:49.821Z,95107.00
2023-05-03T07:52:49.816Z,95105.00
2023-05-03T07:53:49.900Z,95105.00
2023-05-03T07:54:49.800Z,95103.00
2023-05-03T07:55:49.951Z,95101.00
2023-05-03T07:56:49.770Z,95103.00
2023-05-03T07:57:49.923Z,95103.00
2023-05-03T07:58:56.993Z,95107.00
2023-05-03T07:59:50.868Z,95105.00
2023-05-03T08:00:49.876Z,95101.00
2023-05-03T08:01:49.968Z,95101.00
2023-05-03T08:02:49.867Z,95101.00
2023-05-03T08:03:50.094Z,95101.00
2023-05-03T08:04:50.145Z,95099.00
2023-05-03T08:05:50.131Z,95099.00
2023-05-03T08:06:50.009Z,95099.00
2023-05-03T08:07:49.743Z,95097.00
2023-05-03T08:08:49.894Z,95095.00
2023-05-03T08:09:49.808Z,95097.00
2023-05-03T08:10:49.837Z,95089.00
2023-05-03T08:11:49.829Z,95091.00
2023-05-03T08:12:49.825Z,95089.00
2023-05-03T08:13:49.771Z,95089.00
2023-05-03T08:14:49.948Z,95091.00
2023-05-03T08:15:50.051Z,95089.00
2023-05-03T08:16:50.317Z,95091.00
2023-05-03T08:17:50.272Z,95091.00
2023-05-03T08:18:50.132Z,95089.00
2023-05-03T08:19:50.324Z,95085.00
2023-05-03T08:20:50.256Z,95089.00
2023-05-03T08:21:50.284Z,95085.00
2023-05-03T08:22:50.573Z,95087.00
2023-05-03T08:23:50.321Z,95087.00
2023-05-03T08:24:50.464Z,95083.00
2023-05-03T08:25:50.436Z,95085.00
2023-05-03T08:26:50.393Z,95081.00
2023-05-03T08:27:50.603Z,95079.00
2023-05-03T08:28:50.508Z,95077.00
2023-05-03T08:29:50.805Z,95075.00
2023-05-03T08:30:50.632Z,95075.00
2023-05-03T08:31:50.793Z,95073.00
2023-05-03T08:32:51.049Z,95071.00
2023-05-03T08:33:50.711Z,95071.00
2023-05-03T08:34:51.034Z,95069.00
2023-05-03T08:35:50.922Z,95071.00
2023-05-03T08:36:50.998Z,95069.00
2023-05-03T08:37:50.931Z,95067.00
2023-05-03T08:38:51.068Z,95065.00
2023-05-03T08:39:50.987Z,95065.00
2023-05-03T08:40:51.062Z,95065.00
2023-05-03T08:41:51.103Z,95067.00
2023-05-03T08:42:51.172Z,95067.00
2023-05-03T08:43:51.209Z,95071.00
2023-05-03T08:44:51.280Z,95065.00
2023-05-03T08:45:51.362Z,95067.00
2023-05-03T08:46:51.428Z,95067.00
2023-05-03T08:47:51.493Z,95065.00
2023-05-03T08:48:51.516Z,95060.00
2023-05-03T08:49:51.554Z,95067.00
2023-05-03T08:50:51.701Z,95063.00
2023-05-03T08:51:51.677Z,95062.00
2023-05-03T08:52:51.852Z,95062.00
2023-05-03T08:53:51.789Z,95063.00
2023-05-03T08:54:51.901Z,95067.00
2023-05-03T08:55:51.913Z,95063.00
2023-05-03T08:56:51.944Z,95062.00
2023-05-03T08:57:52.028Z,95063.00
2023-05-03T08:58:52.073Z,95063.00
2023-05-03T08:59:52.153Z,95062.00
2023-05-03T09:00:52.235Z,95062.00
2023-05-03T09:01:54.454Z,95060.00
2023-05-03T09:02:52.281Z,95062.00
2023-05-03T09:03:52.355Z,95063.00
2023-05-03T09:04:52.262Z,95058.00
2023-05-03T09:05:52.230Z,95058.00
2023-05-03T09:06:52.368Z,95052.00
2023-05-03T09:07:52.226Z,95052.00
2023-05-03T09:08:52.236Z,95056.00
2023-05-03T09:09:52.217Z,95048.00
2023-05-03T09:10:52.191Z,95046.00
2023-05-03T09:11:52.184Z,95052.00
2023-05-03T09:12:52.199Z,95054.00
2023-05-03T09:13:52.208Z,95052.00
2023-05-03T09:14:52.163Z,95052.00
2023-05-03T09:15:54.338Z,95052.00
2023-05-03T09:16:52.254Z,95050.00
2023-05-03T09:17:52.191Z,95050.00
2023-05-03T09:18:52.195Z,95044.00
2023-05-03T09:19:52.258Z,95044.00
2023-05-03T09:20:53.241Z,95046.00
2023-05-03T09:21:52.343Z,95040.00
2023-05-03T09:22:52.435Z,95040.00
2023-05-03T09:23:52.430Z,95038.00
2023-05-03T09:24:52.494Z,95040.00
2023-05-03T09:25:52.551Z,95036.00
2023-05-03T09:26:52.644Z,95036.00
2023-05-03T09:27:52.621Z,95036.00
2023-05-03T09:28:52.710Z,95030.00
2023-05-03T09:29:52.757Z,95034.00
2023-05-03T09:30:52.791Z,95028.00
2023-05-03T09:31:52.883Z,95026.00
2023-05-03T09:32:52.934Z,95030.00
2023-05-03T09:33:52.930Z,95028.00
2023-05-03T09:34:52.991Z,95026.00
2023-05-03T09:35:53.040Z,95026.00
2023-05-03T09:36:53.074Z,95023.00
2023-05-03T09:37:53.346Z,95023.00
2023-05-03T09:38:53.190Z,95021.00
2023-05-03T09:39:53.222Z,95023.00
2023-05-03T09:40:53.304Z,95017.00
2023-05-03T09:41:53.350Z,95026.00
2023-05-03T09:42:53.398Z,95021.00
2023-05-03T09:43:53.412Z,95021.00
2023-05-03T09:44:53.484Z,95019.00
2023-05-03T09:45:53.572Z,95013.00
2023-05-03T09:46:53.597Z,95021.00
2023-05-03T09:47:53.670Z,95011.00
2023-05-03T09:48:53.719Z,95013.00
2023-05-03T09:49:53.751Z,95011.00
2023-05-03T09:50:53.815Z,95007.00
2023-05-03T09:51:53.874Z,95007.00
2023-05-03T09:52:53.957Z,94997.00
2023-05-03T09:53:53.996Z,94999.00
2023-05-03T09:54:54.047Z,94997.00
2023-05-03T09:55:54.073Z,94999.00
2023-05-03T09:56:54.150Z,94999.00
2023-05-03T09:57:54.224Z,94999.00
2023-05-03T09:58:54.318Z,95003.00
2023-05-03T09:59:54.352Z,95001.00
2023-05-03T10:00:54.446Z,94999.00
2023-05-03T10:01:54.703Z,94991.00
2023-05-03T10:02:54.589Z,94999.00
2023-05-03T10:03:54.596Z,94995.00
2023-05-03T10:04:54.649Z,94995.00
2023-05-03T10:05:54.681Z,95001.00
2023-05-03T10:06:54.779Z,95003.00
2023-05-03T10:07:54.767Z,94991.00
2023-05-03T10:08:54.831Z,94987.00
2023-05-03T10:09:54.828Z,94985.00
2023-05-03T10:10:54.850Z,94987.00
2023-05-03T10:11:54.863Z,94981.00
2023-05-03T10:12:54.890Z,94983.00
2023-05-03T10:13:54.873Z,94981.00
2023-05-03T10:14:54.942Z,94977.00
2023-05-03T10:15:54.946Z,94976.00
2023-05-03T10:16:54.889Z,94974.00
2023-05-03T10:17:54.896Z,94979.00
2023-05-03T10:18:54.914Z,94976.00
2023-05-03T10:19:54.905Z,94979.00
2023-05-03T10:20:54.949Z,94983.00
2023-05-03T10:21:54.959Z,94976.00
2023-05-03T10:22:55.387Z,94976.00
2023-05-03T10:23:54.955Z,94976.00
2023-05-03T10:24:54.937Z,94964.00
2023-05-03T10:25:54.952Z,94964.00
2023-05-03T10:26:54.950Z,94972.00
2023-05-03T10:27:54.962Z,94962.00
2023-05-03T10:28:54.968Z,94974.00
2023-05-03T10:29:54.979Z,94960.00
2023-05-03T10:30:55.200Z,94968.00
2023-05-03T10:31:55.149Z,94966.00
2023-05-03T10:32:55.039Z,94958.00
2023-05-03T10:33:54.999Z,94956.00
2023-05-03T10:34:55.006Z,94962.00
2023-05-03T10:35:55.032Z,94966.00
2023-05-03T10:36:55.064Z,94954.00
2023-05-03T10:37:55.100Z,94958.00
2023-05-03T10:38:55.093Z,94948.00
2023-05-03T10:39:55.111Z,94968.00
2023-05-03T10:40:55.136Z,94958.00
2023-05-03T10:41:55.141Z,94954.00
2023-05-03T10:42:55.158Z,94958.00
2023-05-03T10:43:55.173Z,94956.00
2023-05-03T10:44:55.234Z,94954.00
2023-05-03T10:45:55.250Z,94948.00
2023-05-03T10:46:55.303Z,94948.00
2023-05-03T10:47:55.265Z,94944.00
2023-05-03T10:48:55.252Z,94946.00
2023-05-03T10:49:55.275Z,94946.00
2023-05-03T10:50:55.307Z,94940.00
2023-05-03T10:51:55.306Z,94942.00
2023-05-03T10:52:55.361Z,94942.00
2023-05-03T10:53:55.393Z,94938.00
2023-05-03T10:54:55.404Z,94938.00
2023-05-03T10:55:55.430Z,94940.00
2023-05-03T10:56:55.481Z,94938.00
2023-05-03T10:57:55.621Z,94932.00
2023-05-03T10:58:55.595Z,94936.00
2023-05-03T10:59:55.638Z,94934.00
2023-05-03T11:00:55.672Z,94932.00
2023-05-03T11:01:55.772Z,94929.00
2023-05-03T11:02:55.847Z,94930.00
2023-05-03T11:03:55.895Z,94930.00
2023-05-03T11:04:56.084Z,94929.00
2023-05-03T11:05:55.928Z,94930.00
2023-05-03T11:06:56.177Z,94929.00
2023-05-03T11:07:56.123Z,94927.00
2023-05-03T11:08:56.155Z,94924.00
2023-05-03T11:09:56.399Z,94927.00
2023-05-03T11:10:56.248Z,94924.00
2023-05-03T11:11:56.270Z,94915.00
2023-05-03T11:12:56.373Z,94915.00
2023-05-03T11:13:56.431Z,94915.00
2023-05-03T11:14:56.409Z,94913.00
2023-05-03T11:15:56.520Z,94911.00
2023-05-03T11:16:56.518Z,94911.00
2023-05-03T11:17:56.607Z,94911.00
2023-05-03T11:18:56.568Z,94915.00
2023-05-03T11:19:56.548Z,94915.00
2023-05-03T11:20:56.582Z,94915.00
2023-05-03T11:21:56.576Z,94915.00
2023-05-03T11:22:56.632Z,94913.00
2023-05-03T11:23:56.641Z,94922.00
2023-05-03T11:24:56.661Z,94913.00
2023-05-03T11:25:56.679Z,94915.00
2023-05-03T11:26:56.708Z,94913.00
2023-05-03T11:27:56.750Z,94913.00
2023-05-03T11:28:56.740Z,94911.00
2023-05-03T11:29:56.705Z,94913.00
2023-05-03T11:30:56.765Z,94913.00
2023-05-03T11:31:56.857Z,94911.00
2023-05-03T11:32:56.833Z,94909.00
2023-05-03T11:33:56.748Z,94913.00
2023-05-03T11:34:56.781Z,94911.00
2023-05-03T11:35:56.784Z,94911.00
2023-05-03T11:36:56.844Z,94911.00
2023-05-03T11:37:56.855Z,94911.00
2023-05-03T11:38:56.911Z,94909.00
2023-05-03T11:39:56.856Z,94913.00
2023-05-03T11:40:56.870Z,94909.00
2023-05-03T11:41:56.936Z,94911.00
2023-05-03T11:42:56.905Z,94909.00
2023-05-03T11:44:04.381Z,94909.00
2023-05-03T11:44:57.930Z,94913.00
2023-05-03T11:45:56.971Z,94911.00
2023-05-03T11:46:56.906Z,94913.00